sensor_id;sensor_type;location;lat;lon;timestamp;pressure;altitude;pressure_sealevel;temperature;humidity
11971;BME280;6045;42.682;23.294;2023-02-13T00:00:10;96349.13;;;1.50;82.14
11971;BME280;6045;42.682;23.294;2023-02-13T00:02:38;96353.38;;;1.42;82.30
11971;BME280;6045;42.682;23.294;2023-02-13T00:05:05;96346.22;;;1.44;82.63
11971;BME280;6045;42.682;23.294;2023-02-13T00:07:33;96349.25;;;1.49;82.51
11971;BME280;6045;42.682;23.294;2023-02-13T00:10:00;96353.16;;;1.54;82.24
11971;BME280;6045;42.682;23.294;2023-02-13T00:12:27;96358.59;;;1.53;82.32
11971;BME280;6045;42.682;23.294;2023-02-13T00:14:53;96353.41;;;1.51;81.98
11971;BME280;6045;42.682;23.294;2023-02-13T00:17:20;96355.91;;;1.43;82.20
11971;BME280;6045;42.682;23.294;2023-02-13T00:19:47;96355.91;;;1.43;82.37
11971;BME280;6045;42.682;23.294;2023-02-13T00:22:13;96353.97;;;1.45;82.68
11971;BME280;6045;42.682;23.294;2023-02-13T00:24:42;96354.97;;;1.54;82.53
11971;BME280;6045;42.682;23.294;2023-02-13T00:27:09;96359.31;;;1.64;82.09
11971;BME280;6045;42.682;23.294;2023-02-13T00:29:36;96356.97;;;1.71;81.71
11971;BME280;6045;42.682;23.294;2023-02-13T00:32:03;96365.19;;;1.77;81.32
11971;BME280;6045;42.682;23.294;2023-02-13T00:34:29;96362.25;;;1.71;81.20
11971;BME280;6045;42.682;23.294;2023-02-13T00:36:56;96366.97;;;1.77;80.64
11971;BME280;6045;42.682;23.294;2023-02-13T00:39:23;96359.88;;;1.68;80.26
11971;BME280;6045;42.682;23.294;2023-02-13T00:41:51;96358.44;;;1.54;80.54
11971;BME280;6045;42.682;23.294;2023-02-13T00:44:18;96359.28;;;1.55;80.80
11971;BME280;6045;42.682;23.294;2023-02-13T00:46:44;96358.88;;;1.59;80.96
11971;BME280;6045;42.682;23.294;2023-02-13T00:49:11;96368.88;;;1.65;80.78
11971;BME280;6045;42.682;23.294;2023-02-13T00:51:38;96365.44;;;1.65;80.61
11971;BME280;6045;42.682;23.294;2023-02-13T00:54:05;96368.22;;;1.73;80.58
11971;BME280;6045;42.682;23.294;2023-02-13T00:56:32;96371.56;;;1.75;80.05
11971;BME280;6045;42.682;23.294;2023-02-13T00:59:00;96379.34;;;1.76;80.03
11971;BME280;6045;42.682;23.294;2023-02-13T01:01:27;96376.31;;;1.81;79.97
11971;BME280;6045;42.682;23.294;2023-02-13T01:03:53;96368.69;;;1.87;79.56
11971;BME280;6045;42.682;23.294;2023-02-13T01:06:20;96373.38;;;1.84;79.81
11971;BME280;6045;42.682;23.294;2023-02-13T01:08:47;96372.78;;;1.71;79.98
11971;BME280;6045;42.682;23.294;2023-02-13T01:11:14;96377.63;;;1.66;80.65
11971;BME280;6045;42.682;23.294;2023-02-13T01:13:40;96373.44;;;1.63;80.98
11971;BME280;6045;42.682;23.294;2023-02-13T01:16:09;96369.41;;;1.59;81.26
11971;BME280;6045;42.682;23.294;2023-02-13T01:18:36;96370.13;;;1.61;81.66
11971;BME280;6045;42.682;23.294;2023-02-13T01:21:05;96375.63;;;1.58;81.63
11971;BME280;6045;42.682;23.294;2023-02-13T01:23:34;96376.69;;;1.46;82.56
11971;BME280;6045;42.682;23.294;2023-02-13T01:26:02;96372.53;;;1.44;82.87
11971;BME280;6045;42.682;23.294;2023-02-13T01:28:29;96380.31;;;1.45;82.51
11971;BME280;6045;42.682;23.294;2023-02-13T01:30:57;96376.84;;;1.45;82.82
11971;BME280;6045;42.682;23.294;2023-02-13T01:33:26;96377.41;;;1.48;82.79
11971;BME280;6045;42.682;23.294;2023-02-13T01:35:53;96376.88;;;1.54;83.03
11971;BME280;6045;42.682;23.294;2023-02-13T01:38:22;96378.59;;;1.65;82.51
11971;BME280;6045;42.682;23.294;2023-02-13T01:40:50;96389.50;;;1.60;82.75
11971;BME280;6045;42.682;23.294;2023-02-13T01:43:18;96386.66;;;1.73;83.03
11971;BME280;6045;42.682;23.294;2023-02-13T01:45:48;96390.44;;;1.80;82.73
11971;BME280;6045;42.682;23.294;2023-02-13T01:48:18;96386.31;;;1.87;82.13
11971;BME280;6045;42.682;23.294;2023-02-13T01:50:52;96387.69;;;1.91;81.86
11971;BME280;6045;42.682;23.294;2023-02-13T01:53:24;96390.34;;;1.91;81.90
11971;BME280;6045;42.682;23.294;2023-02-13T01:55:56;96391.31;;;1.90;82.21
11971;BME280;6045;42.682;23.294;2023-02-13T01:58:26;96390.25;;;2.02;82.08
11971;BME280;6045;42.682;23.294;2023-02-13T02:00:54;96391.09;;;2.12;81.45
11971;BME280;6045;42.682;23.294;2023-02-13T02:03:24;96394.16;;;2.17;81.37
11971;BME280;6045;42.682;23.294;2023-02-13T02:05:55;96387.97;;;2.28;80.90
11971;BME280;6045;42.682;23.294;2023-02-13T02:08:23;96398.22;;;2.21;80.81
11971;BME280;6045;42.682;23.294;2023-02-13T02:10:50;96394.59;;;2.22;80.72
11971;BME280;6045;42.682;23.294;2023-02-13T02:13:19;96392.22;;;2.19;81.24
11971;BME280;6045;42.682;23.294;2023-02-13T02:15:47;96386.94;;;2.19;81.27
11971;BME280;6045;42.682;23.294;2023-02-13T02:18:17;96387.25;;;2.16;81.19
11971;BME280;6045;42.682;23.294;2023-02-13T02:21:07;96385.53;;;2.05;81.62
11971;BME280;6045;42.682;23.294;2023-02-13T02:27:12;96388.94;;;1.87;82.70
11971;BME280;6045;42.682;23.294;2023-02-13T02:32:50;96384.25;;;1.60;83.67
11971;BME280;6045;42.682;23.294;2023-02-13T02:35:26;96385.09;;;1.61;84.26
11971;BME280;6045;42.682;23.294;2023-02-13T02:38:07;96388.97;;;1.57;84.50
11971;BME280;6045;42.682;23.294;2023-02-13T02:40:51;96387.50;;;1.43;84.53
11971;BME280;6045;42.682;23.294;2023-02-13T02:43:29;96399.31;;;1.49;85.18
11971;BME280;6045;42.682;23.294;2023-02-13T02:46:05;96406.00;;;1.53;84.78
11971;BME280;6045;42.682;23.294;2023-02-13T02:48:43;96405.81;;;1.45;84.77
11971;BME280;6045;42.682;23.294;2023-02-13T02:51:35;96412.16;;;1.42;84.97
11971;BME280;6045;42.682;23.294;2023-02-13T02:54:07;96415.84;;;1.51;84.97
11971;BME280;6045;42.682;23.294;2023-02-13T02:56:51;96411.19;;;1.64;84.30
11971;BME280;6045;42.682;23.294;2023-02-13T02:59:19;96407.88;;;1.71;83.90
11971;BME280;6045;42.682;23.294;2023-02-13T03:02:06;96411.72;;;1.67;83.25
11971;BME280;6045;42.682;23.294;2023-02-13T03:04:55;96419.78;;;1.66;82.95
11971;BME280;6045;42.682;23.294;2023-02-13T03:07:42;96418.00;;;1.66;83.36
11971;BME280;6045;42.682;23.294;2023-02-13T03:10:16;96407.69;;;1.63;83.33
11971;BME280;6045;42.682;23.294;2023-02-13T03:13:05;96411.09;;;1.75;83.46
11971;BME280;6045;42.682;23.294;2023-02-13T03:15:48;96413.91;;;1.83;83.21
11971;BME280;6045;42.682;23.294;2023-02-13T03:18:36;96419.34;;;1.91;82.65
11971;BME280;6045;42.682;23.294;2023-02-13T03:21:29;96420.81;;;1.84;82.69
11971;BME280;6045;42.682;23.294;2023-02-13T03:24:21;96414.00;;;1.72;82.85
11971;BME280;6045;42.682;23.294;2023-02-13T03:26:54;96410.00;;;1.77;82.62
11971;BME280;6045;42.682;23.294;2023-02-13T03:29:35;96413.72;;;1.75;82.53
11971;BME280;6045;42.682;23.294;2023-02-13T03:32:26;96412.56;;;1.68;82.64
11971;BME280;6045;42.682;23.294;2023-02-13T03:35:03;96424.88;;;1.58;82.64
11971;BME280;6045;42.682;23.294;2023-02-13T03:37:56;96427.06;;;1.53;82.94
11971;BME280;6045;42.682;23.294;2023-02-13T03:40:33;96418.28;;;1.43;83.67
11971;BME280;6045;42.682;23.294;2023-02-13T03:43:07;96417.13;;;1.35;84.10
11971;BME280;6045;42.682;23.294;2023-02-13T03:45:38;96416.59;;;1.42;84.31
11971;BME280;6045;42.682;23.294;2023-02-13T03:48:23;96417.66;;;1.29;84.02
11971;BME280;6045;42.682;23.294;2023-02-13T03:51:11;96416.66;;;1.30;84.04
11971;BME280;6045;42.682;23.294;2023-02-13T03:53:44;96417.69;;;1.39;84.43
11971;BME280;6045;42.682;23.294;2023-02-13T03:56:15;96416.53;;;1.53;83.75
11971;BME280;6045;42.682;23.294;2023-02-13T03:59:02;96417.53;;;1.61;83.86
11971;BME280;6045;42.682;23.294;2023-02-13T04:01:46;96409.69;;;1.71;83.17
11971;BME280;6045;42.682;23.294;2023-02-13T04:04:20;96410.00;;;1.77;83.11
11971;BME280;6045;42.682;23.294;2023-02-13T04:06:51;96407.97;;;1.90;82.67
11971;BME280;6045;42.682;23.294;2023-02-13T04:09:22;96418.81;;;1.97;82.24
11971;BME280;6045;42.682;23.294;2023-02-13T04:11:54;96409.41;;;2.04;81.59
11971;BME280;6045;42.682;23.294;2023-02-13T04:14:24;96418.56;;;2.00;80.89
11971;BME280;6045;42.682;23.294;2023-02-13T04:16:56;96414.69;;;2.04;80.57
11971;BME280;6045;42.682;23.294;2023-02-13T04:19:27;96415.22;;;2.07;80.59
11971;BME280;6045;42.682;23.294;2023-02-13T04:21:56;96415.50;;;1.95;80.51
11971;BME280;6045;42.682;23.294;2023-02-13T04:24:26;96419.00;;;1.75;81.07
11971;BME280;6045;42.682;23.294;2023-02-13T04:26:53;96420.47;;;1.68;81.54
11971;BME280;6045;42.682;23.294;2023-02-13T04:29:21;96418.13;;;1.65;82.08
11971;BME280;6045;42.682;23.294;2023-02-13T04:31:49;96424.59;;;1.61;82.26
11971;BME280;6045;42.682;23.294;2023-02-13T04:34:18;96424.22;;;1.65;82.20
11971;BME280;6045;42.682;23.294;2023-02-13T04:36:44;96423.31;;;1.76;82.45
11971;BME280;6045;42.682;23.294;2023-02-13T04:39:11;96420.72;;;1.85;81.95
11971;BME280;6045;42.682;23.294;2023-02-13T04:41:39;96412.41;;;1.90;82.09
11971;BME280;6045;42.682;23.294;2023-02-13T04:44:06;96418.84;;;2.06;81.55
11971;BME280;6045;42.682;23.294;2023-02-13T04:46:33;96409.72;;;2.20;80.67
11971;BME280;6045;42.682;23.294;2023-02-13T04:49:00;96412.25;;;2.31;79.89
11971;BME280;6045;42.682;23.294;2023-02-13T04:51:27;96421.03;;;2.41;79.48
11971;BME280;6045;42.682;23.294;2023-02-13T04:53:53;96418.97;;;2.45;79.04
11971;BME280;6045;42.682;23.294;2023-02-13T04:56:20;96421.47;;;2.46;78.85
11971;BME280;6045;42.682;23.294;2023-02-13T04:58:48;96427.56;;;2.47;78.80
11971;BME280;6045;42.682;23.294;2023-02-13T05:01:16;96437.13;;;2.38;78.71
11971;BME280;6045;42.682;23.294;2023-02-13T05:03:43;96432.69;;;2.39;78.81
11971;BME280;6045;42.682;23.294;2023-02-13T05:06:10;96432.72;;;2.48;78.26
11971;BME280;6045;42.682;23.294;2023-02-13T05:08:37;96440.34;;;2.51;78.37
11971;BME280;6045;42.682;23.294;2023-02-13T05:11:04;96440.78;;;2.47;78.37
11971;BME280;6045;42.682;23.294;2023-02-13T05:13:30;96445.91;;;2.48;78.11
11971;BME280;6045;42.682;23.294;2023-02-13T05:15:58;96440.47;;;2.50;78.01
11971;BME280;6045;42.682;23.294;2023-02-13T05:18:25;96441.16;;;2.33;77.79
11971;BME280;6045;42.682;23.294;2023-02-13T05:20:52;96450.25;;;2.19;78.17
11971;BME280;6045;42.682;23.294;2023-02-13T05:23:36;96449.97;;;2.22;78.94
11971;BME280;6045;42.682;23.294;2023-02-13T05:26:03;96456.81;;;2.25;78.80
11971;BME280;6045;42.682;23.294;2023-02-13T05:28:30;96453.59;;;2.21;79.32
11971;BME280;6045;42.682;23.294;2023-02-13T05:31:15;96449.06;;;2.33;78.71
11971;BME280;6045;42.682;23.294;2023-02-13T05:33:42;96450.03;;;2.41;78.04
11971;BME280;6045;42.682;23.294;2023-02-13T05:36:09;96445.63;;;2.42;77.95
11971;BME280;6045;42.682;23.294;2023-02-13T05:38:36;96452.25;;;2.36;78.33
11971;BME280;6045;42.682;23.294;2023-02-13T05:41:03;96453.63;;;2.40;78.01
11971;BME280;6045;42.682;23.294;2023-02-13T05:43:29;96467.13;;;2.37;77.79
11971;BME280;6045;42.682;23.294;2023-02-13T05:46:03;96465.94;;;2.60;82.66
11971;BME280;6045;42.682;23.294;2023-02-13T05:48:32;96448.44;;;2.78;82.88
11971;BME280;6045;42.682;23.294;2023-02-13T05:50:59;96456.13;;;2.91;80.12
11971;BME280;6045;42.682;23.294;2023-02-13T05:53:27;96470.84;;;3.03;77.95
11971;BME280;6045;42.682;23.294;2023-02-13T05:55:54;96469.59;;;3.07;76.53
11971;BME280;6045;42.682;23.294;2023-02-13T05:58:21;96464.88;;;3.11;75.98
11971;BME280;6045;42.682;23.294;2023-02-13T06:00:48;96467.22;;;3.23;75.13
11971;BME280;6045;42.682;23.294;2023-02-13T06:03:14;96468.06;;;3.24;74.63
11971;BME280;6045;42.682;23.294;2023-02-13T06:05:43;96470.03;;;3.22;74.20
11971;BME280;6045;42.682;23.294;2023-02-13T06:08:09;96467.66;;;3.19;73.96
11971;BME280;6045;42.682;23.294;2023-02-13T06:10:36;96468.06;;;3.05;74.27
11971;BME280;6045;42.682;23.294;2023-02-13T06:13:03;96474.03;;;2.97;74.39
11971;BME280;6045;42.682;23.294;2023-02-13T06:15:30;96474.19;;;3.05;74.15
11971;BME280;6045;42.682;23.294;2023-02-13T06:17:56;96471.41;;;3.07;73.88
11971;BME280;6045;42.682;23.294;2023-02-13T06:20:23;96484.91;;;3.04;73.99
11971;BME280;6045;42.682;23.294;2023-02-13T06:22:52;96480.44;;;3.04;74.10
11971;BME280;6045;42.682;23.294;2023-02-13T06:25:19;96481.16;;;2.97;74.14
11971;BME280;6045;42.682;23.294;2023-02-13T06:27:46;96488.22;;;2.87;74.85
11971;BME280;6045;42.682;23.294;2023-02-13T06:30:14;96486.69;;;2.94;74.80
11971;BME280;6045;42.682;23.294;2023-02-13T06:32:42;96486.69;;;3.03;74.47
11971;BME280;6045;42.682;23.294;2023-02-13T06:35:09;96485.16;;;3.01;74.36
11971;BME280;6045;42.682;23.294;2023-02-13T06:37:36;96482.38;;;2.93;74.40
11971;BME280;6045;42.682;23.294;2023-02-13T06:40:06;96485.84;;;2.93;75.01
11971;BME280;6045;42.682;23.294;2023-02-13T06:42:33;96494.75;;;3.02;74.60
11971;BME280;6045;42.682;23.294;2023-02-13T06:44:59;96496.56;;;3.01;74.29
11971;BME280;6045;42.682;23.294;2023-02-13T06:47:26;96494.31;;;3.06;74.13
11971;BME280;6045;42.682;23.294;2023-02-13T06:49:53;96496.56;;;3.01;73.94
11971;BME280;6045;42.682;23.294;2023-02-13T06:52:20;96494.91;;;6.01;100.00
11971;BME280;6045;42.682;23.294;2023-02-13T06:54:46;96480.03;;;7.66;100.00
11971;BME280;6045;42.682;23.294;2023-02-13T06:57:15;96478.53;;;7.87;99.43
11971;BME280;6045;42.682;23.294;2023-02-13T06:59:42;96481.84;;;7.33;79.58
11971;BME280;6045;42.682;23.294;2023-02-13T07:02:09;96488.25;;;6.56;68.33
11971;BME280;6045;42.682;23.294;2023-02-13T07:04:36;96493.75;;;6.29;67.05
11971;BME280;6045;42.682;23.294;2023-02-13T07:07:03;96487.16;;;6.07;65.65
11971;BME280;6045;42.682;23.294;2023-02-13T07:09:30;96496.41;;;5.42;66.30
11971;BME280;6045;42.682;23.294;2023-02-13T07:11:57;96490.34;;;5.15;68.21
11971;BME280;6045;42.682;23.294;2023-02-13T07:14:28;96474.50;;;5.05;68.24
11971;BME280;6045;42.682;23.294;2023-02-13T07:16:56;96484.72;;;5.00;68.29
11971;BME280;6045;42.682;23.294;2023-02-13T07:19:22;96491.59;;;4.75;68.52
11971;BME280;6045;42.682;23.294;2023-02-13T07:21:49;96494.31;;;4.56;69.56
11971;BME280;6045;42.682;23.294;2023-02-13T07:24:16;96495.41;;;4.63;70.29
11971;BME280;6045;42.682;23.294;2023-02-13T07:26:42;96505.59;;;4.58;70.14
11971;BME280;6045;42.682;23.294;2023-02-13T07:29:09;96501.09;;;4.32;70.55
11971;BME280;6045;42.682;23.294;2023-02-13T07:31:37;96499.50;;;4.21;70.71
11971;BME280;6045;42.682;23.294;2023-02-13T07:34:04;96502.44;;;4.08;71.68
11971;BME280;6045;42.682;23.294;2023-02-13T07:36:31;96493.53;;;4.09;72.20
11971;BME280;6045;42.682;23.294;2023-02-13T07:38:58;96506.63;;;4.11;72.06
11971;BME280;6045;42.682;23.294;2023-02-13T07:41:25;96502.28;;;4.10;72.24
11971;BME280;6045;42.682;23.294;2023-02-13T07:43:51;96500.81;;;3.98;72.23
11971;BME280;6045;42.682;23.294;2023-02-13T07:46:18;96501.13;;;3.85;73.74
11971;BME280;6045;42.682;23.294;2023-02-13T07:48:47;96502.06;;;3.84;72.90
11971;BME280;6045;42.682;23.294;2023-02-13T07:51:13;96501.94;;;3.95;73.07
11971;BME280;6045;42.682;23.294;2023-02-13T07:53:40;96504.72;;;3.84;72.51
11971;BME280;6045;42.682;23.294;2023-02-13T07:56:08;96493.88;;;3.78;72.06
11971;BME280;6045;42.682;23.294;2023-02-13T07:58:35;96498.06;;;3.71;72.14
11971;BME280;6045;42.682;23.294;2023-02-13T08:01:05;96494.59;;;3.70;73.21
11971;BME280;6045;42.682;23.294;2023-02-13T08:03:32;96504.63;;;3.57;73.08
11971;BME280;6045;42.682;23.294;2023-02-13T08:06:00;96504.22;;;3.52;74.03
11971;BME280;6045;42.682;23.294;2023-02-13T08:08:27;96499.09;;;3.51;74.18
11971;BME280;6045;42.682;23.294;2023-02-13T08:10:54;96507.53;;;3.64;74.49
11971;BME280;6045;42.682;23.294;2023-02-13T08:13:39;96497.25;;;3.51;73.64
11971;BME280;6045;42.682;23.294;2023-02-13T08:16:06;96496.81;;;3.65;73.99
11971;BME280;6045;42.682;23.294;2023-02-13T08:18:32;96490.03;;;3.53;73.65
11971;BME280;6045;42.682;23.294;2023-02-13T08:21:02;96489.19;;;3.53;73.99
11971;BME280;6045;42.682;23.294;2023-02-13T08:23:28;96494.91;;;3.48;73.82
11971;BME280;6045;42.682;23.294;2023-02-13T08:25:58;96492.78;;;3.61;74.11
11971;BME280;6045;42.682;23.294;2023-02-13T08:28:25;96492.38;;;3.66;74.08
11971;BME280;6045;42.682;23.294;2023-02-13T08:30:51;96497.91;;;3.72;74.14
11971;BME280;6045;42.682;23.294;2023-02-13T08:33:18;96500.97;;;3.77;74.07
11971;BME280;6045;42.682;23.294;2023-02-13T08:35:45;96496.13;;;3.63;73.43
11971;BME280;6045;42.682;23.294;2023-02-13T08:38:13;96492.78;;;3.80;73.87
11971;BME280;6045;42.682;23.294;2023-02-13T08:40:40;96490.91;;;4.00;73.69
11971;BME280;6045;42.682;23.294;2023-02-13T08:43:07;96489.25;;;3.99;72.84
11971;BME280;6045;42.682;23.294;2023-02-13T08:45:34;96501.50;;;4.00;72.94
11971;BME280;6045;42.682;23.294;2023-02-13T08:48:01;96497.34;;;3.97;72.60
11971;BME280;6045;42.682;23.294;2023-02-13T08:50:29;96505.47;;;3.77;71.54
11971;BME280;6045;42.682;23.294;2023-02-13T08:52:57;96491.81;;;5.00;94.33
11971;BME280;6045;42.682;23.294;2023-02-13T08:55:26;96499.75;;;4.55;78.01
11971;BME280;6045;42.682;23.294;2023-02-13T08:57:52;96497.13;;;5.00;84.57
11971;BME280;6045;42.682;23.294;2023-02-13T09:00:20;96499.66;;;4.74;73.94
11971;BME280;6045;42.682;23.294;2023-02-13T09:02:47;96502.81;;;4.87;73.00
11971;BME280;6045;42.682;23.294;2023-02-13T09:05:14;96498.69;;;4.75;70.70
11971;BME280;6045;42.682;23.294;2023-02-13T09:07:40;96492.13;;;4.52;70.53
11971;BME280;6045;42.682;23.294;2023-02-13T09:10:08;96496.84;;;4.48;71.49
11971;BME280;6045;42.682;23.294;2023-02-13T09:12:36;96497.97;;;4.46;71.57
11971;BME280;6045;42.682;23.294;2023-02-13T09:15:03;96501.78;;;4.70;72.16
11971;BME280;6045;42.682;23.294;2023-02-13T09:17:30;96494.19;;;4.85;71.88
11971;BME280;6045;42.682;23.294;2023-02-13T09:19:57;96490.53;;;4.86;71.48
11971;BME280;6045;42.682;23.294;2023-02-13T09:22:24;96488.88;;;4.85;71.32
11971;BME280;6045;42.682;23.294;2023-02-13T09:24:50;96498.28;;;4.70;71.19
11971;BME280;6045;42.682;23.294;2023-02-13T09:27:17;96498.13;;;4.71;70.55
11971;BME280;6045;42.682;23.294;2023-02-13T09:29:45;96492.19;;;4.60;69.97
11971;BME280;6045;42.682;23.294;2023-02-13T09:32:12;96491.88;;;4.90;70.78
11971;BME280;6045;42.682;23.294;2023-02-13T09:34:40;96478.44;;;5.19;70.06
11971;BME280;6045;42.682;23.294;2023-02-13T09:37:07;96479.50;;;5.26;69.21
11971;BME280;6045;42.682;23.294;2023-02-13T09:39:33;96481.16;;;5.44;69.12
11971;BME280;6045;42.682;23.294;2023-02-13T09:42:00;96488.44;;;5.42;67.43
11971;BME280;6045;42.682;23.294;2023-02-13T09:44:30;96483.00;;;5.26;67.36
11971;BME280;6045;42.682;23.294;2023-02-13T09:47:08;96470.41;;;5.28;68.37
11971;BME280;6045;42.682;23.294;2023-02-13T09:49:41;96477.53;;;5.45;68.81
11971;BME280;6045;42.682;23.294;2023-02-13T09:52:09;96466.22;;;5.61;67.25
11971;BME280;6045;42.682;23.294;2023-02-13T09:54:36;96462.84;;;5.51;66.93
11971;BME280;6045;42.682;23.294;2023-02-13T09:57:09;96467.69;;;5.56;66.18
11971;BME280;6045;42.682;23.294;2023-02-13T09:59:56;96455.44;;;6.65;67.73
11971;BME280;6045;42.682;23.294;2023-02-13T10:02:41;96443.47;;;7.84;63.48
11971;BME280;6045;42.682;23.294;2023-02-13T10:05:35;96438.31;;;8.53;58.65
11971;BME280;6045;42.682;23.294;2023-02-13T10:08:11;96441.53;;;9.33;56.55
11971;BME280;6045;42.682;23.294;2023-02-13T10:10:50;96434.66;;;10.21;53.60
11971;BME280;6045;42.682;23.294;2023-02-13T10:13:34;96436.69;;;10.63;51.46
11971;BME280;6045;42.682;23.294;2023-02-13T10:16:09;96422.56;;;10.83;51.52
11971;BME280;6045;42.682;23.294;2023-02-13T10:18:46;96423.28;;;11.07;50.27
11971;BME280;6045;42.682;23.294;2023-02-13T10:21:18;96406.88;;;10.95;49.66
11971;BME280;6045;42.682;23.294;2023-02-13T10:23:50;96410.31;;;11.10;64.13
11971;BME280;6045;42.682;23.294;2023-02-13T10:26:21;96404.03;;;11.60;46.93
11971;BME280;6045;42.682;23.294;2023-02-13T10:28:54;96389.66;;;12.85;46.15
11971;BME280;6045;42.682;23.294;2023-02-13T10:31:41;96394.78;;;13.27;45.94
11971;BME280;6045;42.682;23.294;2023-02-13T10:34:15;96388.19;;;12.82;43.94
11971;BME280;6045;42.682;23.294;2023-02-13T10:36:44;96390.19;;;13.08;42.64
11971;BME280;6045;42.682;23.294;2023-02-13T10:39:22;96383.69;;;13.83;41.97
11971;BME280;6045;42.682;23.294;2023-02-13T10:41:51;96376.25;;;14.30;42.59
11971;BME280;6045;42.682;23.294;2023-02-13T10:44:33;96370.81;;;14.57;43.15
11971;BME280;6045;42.682;23.294;2023-02-13T10:47:14;96369.22;;;15.38;39.50
11971;BME280;6045;42.682;23.294;2023-02-13T10:49:54;96369.06;;;14.88;38.86
11971;BME280;6045;42.682;23.294;2023-02-13T10:52:32;96361.91;;;14.56;39.78
11971;BME280;6045;42.682;23.294;2023-02-13T10:55:18;96357.66;;;15.31;39.46
11971;BME280;6045;42.682;23.294;2023-02-13T10:58:11;96359.44;;;16.24;37.87
11971;BME280;6045;42.682;23.294;2023-02-13T11:00:45;96360.59;;;16.34;35.89
11971;BME280;6045;42.682;23.294;2023-02-13T11:03:18;96352.09;;;16.13;36.96
11971;BME280;6045;42.682;23.294;2023-02-13T11:05:47;96346.63;;;16.19;35.84
11971;BME280;6045;42.682;23.294;2023-02-13T11:08:17;96340.53;;;16.49;36.18
11971;BME280;6045;42.682;23.294;2023-02-13T11:10:46;96332.66;;;16.65;35.32
11971;BME280;6045;42.682;23.294;2023-02-13T11:13:18;96338.13;;;16.95;33.68
11971;BME280;6045;42.682;23.294;2023-02-13T11:16:00;96334.69;;;16.70;35.11
11971;BME280;6045;42.682;23.294;2023-02-13T11:18:29;96326.53;;;17.06;35.41
11971;BME280;6045;42.682;23.294;2023-02-13T11:21:02;96324.44;;;17.67;33.42
11971;BME280;6045;42.682;23.294;2023-02-13T11:23:42;96315.88;;;17.11;34.31
11971;BME280;6045;42.682;23.294;2023-02-13T11:26:11;96314.44;;;17.08;33.11
11971;BME280;6045;42.682;23.294;2023-02-13T11:28:46;96306.44;;;17.02;32.33
11971;BME280;6045;42.682;23.294;2023-02-13T11:31:21;96307.66;;;17.47;32.36
11971;BME280;6045;42.682;23.294;2023-02-13T11:33:48;96299.25;;;17.26;32.31
11971;BME280;6045;42.682;23.294;2023-02-13T11:36:23;96287.69;;;16.89;32.09
11971;BME280;6045;42.682;23.294;2023-02-13T11:38:57;96291.16;;;16.78;32.54
11971;BME280;6045;42.682;23.294;2023-02-13T11:41:25;96293.91;;;15.74;33.55
11971;BME280;6045;42.682;23.294;2023-02-13T11:43:53;96283.75;;;15.51;34.55
11971;BME280;6045;42.682;23.294;2023-02-13T11:46:27;96270.91;;;15.71;34.06
11971;BME280;6045;42.682;23.294;2023-02-13T11:48:59;96272.56;;;16.15;33.25
11971;BME280;6045;42.682;23.294;2023-02-13T11:51:42;96263.09;;;15.88;33.88
11971;BME280;6045;42.682;23.294;2023-02-13T11:54:27;96259.38;;;16.25;32.79
11971;BME280;6045;42.682;23.294;2023-02-13T11:56:57;96253.59;;;16.40;33.59
11971;BME280;6045;42.682;23.294;2023-02-13T11:59:26;96246.13;;;17.84;31.85
11971;BME280;6045;42.682;23.294;2023-02-13T12:02:14;96225.81;;;18.44;29.92
11971;BME280;6045;42.682;23.294;2023-02-13T12:04:41;96232.59;;;18.07;30.16
11971;BME280;6045;42.682;23.294;2023-02-13T12:07:16;96236.66;;;17.40;30.26
11971;BME280;6045;42.682;23.294;2023-02-13T12:09:46;96237.06;;;17.14;30.81
11971;BME280;6045;42.682;23.294;2023-02-13T12:12:17;96235.47;;;16.95;31.35
11971;BME280;6045;42.682;23.294;2023-02-13T12:14:45;96223.06;;;17.58;30.59
11971;BME280;6045;42.682;23.294;2023-02-13T12:17:14;96231.66;;;17.67;29.84
11971;BME280;6045;42.682;23.294;2023-02-13T12:19:43;96226.94;;;17.74;29.67
11971;BME280;6045;42.682;23.294;2023-02-13T12:22:31;96222.41;;;16.92;29.95
11971;BME280;6045;42.682;23.294;2023-02-13T12:25:22;96220.41;;;16.58;31.83
11971;BME280;6045;42.682;23.294;2023-02-13T12:27:59;96231.97;;;17.06;30.36
11971;BME280;6045;42.682;23.294;2023-02-13T12:30:40;96209.25;;;17.48;30.30
11971;BME280;6045;42.682;23.294;2023-02-13T12:33:20;96224.38;;;17.79;29.41
11971;BME280;6045;42.682;23.294;2023-02-13T12:35:56;96213.09;;;18.45;28.27
11971;BME280;6045;42.682;23.294;2023-02-13T12:38:44;96215.22;;;19.56;26.69
11971;BME280;6045;42.682;23.294;2023-02-13T12:41:17;96209.56;;;19.29;27.22
11971;BME280;6045;42.682;23.294;2023-02-13T12:44:16;96202.75;;;19.38;26.17
11971;BME280;6045;42.682;23.294;2023-02-13T12:46:53;96200.75;;;19.67;26.16
11971;BME280;6045;42.682;23.294;2023-02-13T12:49:38;96197.91;;;19.95;26.01
11971;BME280;6045;42.682;23.294;2023-02-13T12:52:24;96196.81;;;19.58;26.28
11971;BME280;6045;42.682;23.294;2023-02-13T12:55:10;96183.78;;;19.93;26.20
11971;BME280;6045;42.682;23.294;2023-02-13T12:57:51;96186.59;;;20.58;24.99
11971;BME280;6045;42.682;23.294;2023-02-13T13:00:30;96180.88;;;20.60;25.26
11971;BME280;6045;42.682;23.294;2023-02-13T13:03:22;96181.38;;;20.57;24.69
11971;BME280;6045;42.682;23.294;2023-02-13T13:06:07;96178.47;;;19.65;25.52
11971;BME280;6045;42.682;23.294;2023-02-13T13:08:47;96181.66;;;19.29;25.80
11971;BME280;6045;42.682;23.294;2023-02-13T13:11:32;96174.22;;;18.63;26.73
11971;BME280;6045;42.682;23.294;2023-02-13T13:14:06;96169.09;;;18.50;27.23
11971;BME280;6045;42.682;23.294;2023-02-13T13:16:43;96168.84;;;18.39;27.38
11971;BME280;6045;42.682;23.294;2023-02-13T13:19:21;96165.69;;;17.80;28.00
11971;BME280;6045;42.682;23.294;2023-02-13T13:21:56;96168.13;;;18.16;27.92
11971;BME280;6045;42.682;23.294;2023-02-13T13:24:36;96158.22;;;18.61;27.07
11971;BME280;6045;42.682;23.294;2023-02-13T13:27:16;96160.66;;;18.91;26.84
11971;BME280;6045;42.682;23.294;2023-02-13T13:29:47;96160.09;;;19.05;26.52
11971;BME280;6045;42.682;23.294;2023-02-13T13:32:18;96156.56;;;18.88;26.79
11971;BME280;6045;42.682;23.294;2023-02-13T13:34:46;96150.28;;;19.33;26.42
11971;BME280;6045;42.682;23.294;2023-02-13T13:37:20;96156.09;;;19.25;26.54